createdAt,value
2022-07-28T00:01:26.188Z,68.6
2022-07-28T00:07:01.569Z,69
2022-07-28T00:12:36.324Z,68.7
2022-07-28T00:18:12.013Z,68.9
2022-07-28T00:23:47.590Z,69.1
2022-07-28T00:29:22.363Z,69.2
2022-07-28T00:34:57.035Z,69.3
2022-07-28T00:40:34.442Z,69.6
2022-07-28T00:46:09.591Z,69.7
2022-07-28T00:51:45.550Z,69.7
2022-07-28T00:57:20.623Z,69.8
2022-07-28T01:02:57.067Z,70.2
2022-07-28T01:08:33.744Z,70.4
2022-07-28T01:14:08.447Z,70.6
2022-07-28T01:19:44.215Z,70.6
2022-07-28T01:25:20.047Z,70.8
2022-07-28T01:30:55.277Z,70.8
2022-07-28T01:36:31.178Z,70.7
2022-07-28T01:42:07.070Z,70.6
2022-07-28T01:47:41.910Z,70.8
2022-07-28T01:53:17.755Z,71
2022-07-28T01:58:52.643Z,71.2
2022-07-28T02:04:27.853Z,71.6
2022-07-28T02:10:02.659Z,71.3
2022-07-28T02:15:37.695Z,71.3
2022-07-28T02:21:13.190Z,71.7
2022-07-28T02:26:47.869Z,71.7
2022-07-28T02:32:28.842Z,72.1
2022-07-28T02:38:04.041Z,71.9
2022-07-28T02:43:50.818Z,72.5
2022-07-28T02:49:26.216Z,72.2
2022-07-28T02:55:01.130Z,72.3
2022-07-28T03:00:36.022Z,72.2
2022-07-28T03:06:11.206Z,72.8
2022-07-28T03:11:46.061Z,72.2
2022-07-28T03:17:22.668Z,72.2
2022-07-28T03:22:58.128Z,72.6
2022-07-28T03:28:32.940Z,72.8
2022-07-28T03:34:07.933Z,72.8
2022-07-28T03:39:52.504Z,72.7
2022-07-28T03:45:27.228Z,72.6
2022-07-28T03:51:02.053Z,72.8
2022-07-28T03:56:38.157Z,73
2022-07-28T04:02:13.418Z,73
2022-07-28T04:07:49.047Z,73.1
2022-07-28T04:13:23.838Z,73.3
2022-07-28T04:18:58.704Z,73.2
2022-07-28T04:24:34.514Z,73.1
2022-07-28T04:30:10.084Z,73
2022-07-28T04:35:45.283Z,73
2022-07-28T04:41:20.248Z,72.7
2022-07-28T04:46:55.313Z,72.7
2022-07-28T04:52:30.195Z,72.3
2022-07-28T04:58:07.117Z,73.2
2022-07-28T05:03:45.499Z,73.5
2022-07-28T05:09:26.187Z,73.7
2022-07-28T05:15:01.011Z,73.4
2022-07-28T05:20:35.969Z,73.2
2022-07-28T05:26:10.747Z,73.6
2022-07-28T05:31:45.786Z,73.7
2022-07-28T05:37:21.346Z,74.1
2022-07-28T05:42:56.210Z,73.9
2022-07-28T05:48:32.134Z,74
2022-07-28T05:54:08.147Z,73.8
2022-07-28T05:59:43.105Z,73.8
2022-07-28T06:05:18.973Z,74.5
2022-07-28T06:10:54.785Z,76.8
2022-07-28T06:16:52.144Z,76.6
2022-07-28T06:22:25.784Z,75.6
2022-07-28T06:28:01.556Z,74.8
2022-07-28T06:33:36.234Z,75.7
2022-07-28T06:39:33.159Z,76
2022-07-28T06:45:09.030Z,76
2022-07-28T06:50:57.557Z,75.6
2022-07-28T06:56:32.485Z,75.8
2022-07-28T07:02:07.170Z,75.7
2022-07-28T07:07:44.107Z,77.1
2022-07-28T07:13:18.922Z,76.2
2022-07-28T07:19:16.346Z,73.4
2022-07-28T07:24:57.038Z,71.7
2022-07-28T07:30:33.147Z,72.9
2022-07-28T07:36:09.269Z,72.7
2022-07-28T07:41:46.208Z,70.5
2022-07-28T07:47:21.116Z,69.6
2022-07-28T07:53:05.376Z,70.7
2022-07-28T07:58:42.032Z,69.1
2022-07-28T08:04:25.677Z,68.3
2022-07-28T08:10:04.945Z,68.3
2022-07-28T08:15:40.165Z,66.8
2022-07-28T08:21:15.784Z,66.7
2022-07-28T08:26:51.866Z,67
2022-07-28T08:32:26.702Z,65.2
2022-07-28T08:38:01.535Z,63.8
2022-07-28T08:43:36.142Z,64.6
2022-07-28T08:49:16.070Z,62.7
2022-07-28T08:54:51.832Z,66.1
2022-07-28T09:00:27.643Z,66.4
2022-07-28T09:06:02.743Z,63.3
2022-07-28T09:11:37.656Z,65.5
2022-07-28T09:17:34.351Z,60.8
2022-07-28T09:23:44.435Z,57.7
2022-07-28T09:29:20.995Z,57
2022-07-28T09:34:55.724Z,58.9
2022-07-28T09:40:30.593Z,62.1
2022-07-28T09:46:06.691Z,59.6
2022-07-28T09:51:43.270Z,58.2
2022-07-28T09:57:18.638Z,58
2022-07-28T10:02:54.893Z,57.1
2022-07-28T10:08:30.824Z,56.6
2022-07-28T10:14:06.209Z,54.5
2022-07-28T10:19:41.128Z,54.8
2022-07-28T10:25:17.253Z,55.1
2022-07-28T10:30:52.184Z,55
2022-07-28T10:36:30.768Z,53.8
2022-07-28T10:42:05.763Z,54
2022-07-28T10:47:40.852Z,51.9
2022-07-28T10:53:15.944Z,51.6
2022-07-28T10:58:50.963Z,48.9
2022-07-28T11:04:29.888Z,49
2022-07-28T11:10:05.780Z,51.6
2022-07-28T11:15:40.645Z,53.9
2022-07-28T11:21:18.655Z,54.6
2022-07-28T11:27:15.072Z,54.5
2022-07-28T11:32:49.778Z,55.2
2022-07-28T11:38:24.686Z,51.5
2022-07-28T11:44:01.098Z,49.7
2022-07-28T11:49:41.367Z,49.1
2022-07-28T11:55:16.239Z,47.7
2022-07-28T12:00:51.001Z,49.1
2022-07-28T12:06:29.943Z,46.2
2022-07-28T12:12:05.500Z,47.9
2022-07-28T12:18:09.021Z,46.3
2022-07-28T12:23:49.754Z,48.5
2022-07-28T12:29:36.014Z,49.8
2022-07-28T12:35:13.563Z,50.2
2022-07-28T12:40:48.431Z,48.3
2022-07-28T12:46:28.295Z,49.7
2022-07-28T12:52:04.659Z,48.4
2022-07-28T12:57:50.232Z,51.4
2022-07-28T13:03:26.477Z,49.7
2022-07-28T13:09:02.548Z,48.9
2022-07-28T13:14:37.344Z,50.9
2022-07-28T13:20:12.220Z,46.1
2022-07-28T13:25:47.231Z,42.6
2022-07-28T13:31:22.430Z,43.8
2022-07-28T13:36:58.266Z,27.1
2022-07-28T13:42:34.103Z,22.2
2022-07-28T13:48:12.064Z,23.4
2022-07-28T13:53:47.935Z,31.1
2022-07-28T13:59:26.936Z,22.4
2022-07-28T14:05:05.303Z,29.3
2022-07-28T14:10:39.985Z,38.4
2022-07-28T14:16:44.605Z,42.4
2022-07-28T14:22:21.988Z,44
2022-07-28T14:27:57.745Z,45.2
2022-07-28T14:33:32.662Z,45.4
2022-07-28T14:39:12.867Z,45.8
2022-07-28T14:44:48.408Z,46.8
2022-07-28T14:50:24.291Z,48.6
2022-07-28T14:55:59.462Z,49.5
2022-07-28T15:01:36.723Z,50.1
2022-07-28T15:07:13.204Z,50.8
2022-07-28T15:12:47.855Z,51.4
2022-07-28T15:18:44.127Z,52
2022-07-28T15:24:18.778Z,53.1
2022-07-28T15:29:58.677Z,53.8
2022-07-28T15:35:59.831Z,53.1
2022-07-28T15:41:36.252Z,52.7
2022-07-28T15:47:11.346Z,52.9
2022-07-28T15:52:46.275Z,53.3
2022-07-28T15:58:21.284Z,53.2
2022-07-28T16:03:56.059Z,53.5
2022-07-28T16:09:47.198Z,54.2
2022-07-28T16:15:22.162Z,53
2022-07-28T16:20:58.334Z,52.3
2022-07-28T16:26:33.494Z,51.7
2022-07-28T16:32:08.658Z,51.2
2022-07-28T16:37:43.516Z,49.9
2022-07-28T16:43:18.225Z,49
2022-07-28T16:48:55.233Z,48.7
2022-07-28T16:54:32.161Z,48.6
2022-07-28T17:00:07.196Z,49.1
2022-07-28T17:05:42.489Z,48
2022-07-28T17:11:17.354Z,48.3
2022-07-28T17:17:13.978Z,49.7
2022-07-28T17:22:46.809Z,50.7
2022-07-28T17:28:22.552Z,51.8
2022-07-28T17:33:59.391Z,51.6
2022-07-28T17:39:35.129Z,56.4
2022-07-28T17:45:09.591Z,56.1
2022-07-28T17:50:45.649Z,57
2022-07-28T17:56:22.173Z,57
2022-07-28T18:01:58.423Z,58.8
2022-07-28T18:07:53.747Z,59.2
2022-07-28T18:13:33.972Z,60.9
2022-07-28T18:19:30.818Z,62.3
2022-07-28T18:25:05.400Z,63.3
2022-07-28T18:30:41.133Z,63.1
2022-07-28T18:36:17.464Z,64.3
2022-07-28T18:41:53.379Z,65.3
2022-07-28T18:47:28.254Z,65.1
2022-07-28T18:53:03.097Z,65.7
2022-07-28T18:58:37.993Z,66.5
2022-07-28T19:04:14.541Z,67
2022-07-28T19:09:52.711Z,68.8
2022-07-28T19:15:27.700Z,70
2022-07-28T19:21:04.156Z,70.1
2022-07-28T19:26:40.378Z,70.7
2022-07-28T19:32:15.243Z,71.4
2022-07-28T19:37:50.112Z,71
2022-07-28T19:43:25.006Z,71.8
2022-07-28T19:49:00.205Z,72.3
2022-07-28T19:54:37.799Z,72.1
2022-07-28T20:00:26.307Z,72.8
2022-07-28T20:06:01.217Z,72.4
2022-07-28T20:11:36.466Z,72.7
2022-07-28T20:17:37.757Z,72.8
2022-07-28T20:23:15.634Z,72.5
2022-07-28T20:28:50.741Z,72.2
2022-07-28T20:34:25.320Z,73.6
2022-07-28T20:40:00.240Z,74.1
2022-07-28T20:45:37.289Z,73.9
2022-07-28T20:51:12.769Z,73.7
2022-07-28T20:56:47.659Z,73.8
2022-07-28T21:02:23.218Z,74.9
2022-07-28T21:08:09.094Z,75.3
2022-07-28T21:13:53.257Z,75.9
2022-07-28T21:19:28.225Z,76.3
2022-07-28T21:25:04.029Z,76.5
2022-07-28T21:30:38.949Z,76.3
2022-07-28T21:36:13.663Z,75.8
2022-07-28T21:41:48.402Z,75.3
2022-07-28T21:47:23.416Z,73.7
2022-07-28T21:52:58.223Z,73
2022-07-28T21:58:35.216Z,72.5
2022-07-28T22:04:10.273Z,72.1
2022-07-28T22:09:46.238Z,71.8
2022-07-28T22:15:21.200Z,71.8
2022-07-28T22:20:55.910Z,71.9
2022-07-28T22:26:31.956Z,72.2
2022-07-28T22:32:06.828Z,72.1
2022-07-28T22:37:42.780Z,71.8
2022-07-28T22:43:17.384Z,71.7
2022-07-28T22:48:52.644Z,72.1
2022-07-28T22:54:28.652Z,71.9
2022-07-28T23:00:04.962Z,71.7
2022-07-28T23:05:47.186Z,71.9
2022-07-28T23:11:32.178Z,71.7
2022-07-28T23:17:32.528Z,72.2
2022-07-28T23:23:09.532Z,71.7
2022-07-28T23:28:48.381Z,71.6
2022-07-28T23:34:28.455Z,72
2022-07-28T23:40:07.303Z,72.3
2022-07-28T23:45:46.458Z,71.8
2022-07-28T23:51:48.848Z,72
2022-07-28T23:57:32.105Z,72.1
